createdAt,value
2023-01-19T00:00:44.221Z,-0.10
2023-01-19T00:03:16.131Z,-0.15
2023-01-19T00:05:44.593Z,-0.17
2023-01-19T00:08:15.552Z,-0.20
2023-01-19T00:10:44.774Z,-0.22
2023-01-19T00:13:16.146Z,-0.27
2023-01-19T00:15:43.948Z,-0.31
2023-01-19T00:18:11.513Z,-0.37
2023-01-19T00:20:39.037Z,-0.33
2023-01-19T00:23:07.979Z,-0.32
2023-01-19T00:25:35.823Z,-0.32
2023-01-19T00:28:03.503Z,-0.34
2023-01-19T00:30:32.332Z,-0.42
2023-01-19T00:33:00.387Z,-0.50
2023-01-19T00:35:28.160Z,-0.60
2023-01-19T00:37:56.784Z,-0.67
2023-01-19T00:40:24.313Z,-0.74
2023-01-19T00:42:50.854Z,-0.80
2023-01-19T00:45:19.840Z,-0.80
2023-01-19T00:47:50.251Z,-0.80
2023-01-19T00:50:18.658Z,-0.84
2023-01-19T00:52:46.291Z,-0.88
2023-01-19T00:55:15.493Z,-0.91
2023-01-19T00:57:43.956Z,-0.91
2023-01-19T01:00:14.138Z,-0.89
2023-01-19T01:02:43.640Z,-0.97
2023-01-19T01:05:13.447Z,-1.07
2023-01-19T01:07:41.834Z,-1.15
2023-01-19T01:10:10.646Z,-1.22
2023-01-19T01:12:39.149Z,-1.31
2023-01-19T01:15:08.665Z,-1.39
2023-01-19T01:17:36.228Z,-1.48
2023-01-19T01:20:04.734Z,-1.58
2023-01-19T01:22:33.687Z,-1.70
2023-01-19T01:25:01.258Z,-1.79
2023-01-19T01:27:28.811Z,-1.81
2023-01-19T01:29:56.343Z,-1.82
2023-01-19T01:32:23.898Z,-1.80
2023-01-19T01:34:51.421Z,-1.86
2023-01-19T01:37:19.025Z,-1.91
2023-01-19T01:39:47.884Z,-1.97
2023-01-19T01:42:18.322Z,-1.98
2023-01-19T01:44:52.085Z,-1.98
2023-01-19T01:47:24.892Z,-1.96
2023-01-19T01:49:54.301Z,-1.88
2023-01-19T01:52:25.067Z,-1.79
2023-01-19T01:54:54.067Z,-1.71
2023-01-19T01:57:23.100Z,-1.61
2023-01-19T01:59:51.611Z,-1.51
2023-01-19T02:02:39.793Z,-1.43
2023-01-19T02:05:10.469Z,-1.46
2023-01-19T02:08:04.898Z,-1.47
2023-01-19T02:10:52.386Z,-1.43
2023-01-19T02:13:22.965Z,-1.39
2023-01-19T02:15:52.604Z,-1.35
2023-01-19T02:18:21.255Z,-1.38
2023-01-19T02:20:57.732Z,-1.48
2023-01-19T02:23:43.825Z,-1.62
2023-01-19T02:26:15.310Z,-1.76
2023-01-19T02:28:46.139Z,-1.87
2023-01-19T02:31:15.104Z,-1.98
2023-01-19T02:33:42.818Z,-2.09
2023-01-19T02:36:13.391Z,-2.17
2023-01-19T02:38:44.975Z,-2.19
2023-01-19T02:41:16.865Z,-2.18
2023-01-19T02:43:45.486Z,-2.26
2023-01-19T02:46:15.508Z,-2.33
2023-01-19T02:48:43.795Z,-2.39
2023-01-19T02:51:15.552Z,-2.45
2023-01-19T02:54:14.671Z,-2.54
2023-01-19T02:57:01.289Z,-2.58
2023-01-19T02:59:44.978Z,-2.61
2023-01-19T03:02:22.991Z,-2.60
2023-01-19T03:05:00.984Z,-2.63
2023-01-19T03:07:41.613Z,-2.68
2023-01-19T03:10:18.293Z,-2.72
2023-01-19T03:12:51.763Z,-2.78
2023-01-19T03:15:24.052Z,-2.80
2023-01-19T03:17:54.125Z,-2.84
2023-01-19T03:20:25.472Z,-2.87
2023-01-19T03:22:56.592Z,-2.93
2023-01-19T03:25:26.641Z,-2.97
2023-01-19T03:27:58.503Z,-3.00
2023-01-19T03:30:29.920Z,-3.06
2023-01-19T03:33:03.185Z,-3.09
2023-01-19T03:35:35.636Z,-3.15
2023-01-19T03:38:08.616Z,-3.14
2023-01-19T03:40:38.052Z,-3.11
2023-01-19T03:43:06.871Z,-3.11
2023-01-19T03:45:37.837Z,-3.07
2023-01-19T03:48:06.130Z,-2.97
2023-01-19T03:50:33.825Z,-2.87
2023-01-19T03:53:03.666Z,-2.91
2023-01-19T03:55:31.182Z,-2.95
2023-01-19T03:58:00.152Z,-2.96
2023-01-19T04:00:27.699Z,-2.93
2023-01-19T04:02:55.435Z,-2.93
2023-01-19T04:05:23.247Z,-3.01
2023-01-19T04:07:50.994Z,-3.09
2023-01-19T04:10:19.236Z,-3.16
2023-01-19T04:12:47.055Z,-3.18
2023-01-19T04:15:16.730Z,-3.14
2023-01-19T04:17:44.249Z,-3.12
2023-01-19T04:20:12.122Z,-3.18
2023-01-19T04:22:40.111Z,-3.23
2023-01-19T04:25:09.063Z,-3.28
2023-01-19T04:27:36.661Z,-3.32
2023-01-19T04:30:04.639Z,-3.33
2023-01-19T04:32:33.842Z,-3.34
2023-01-19T04:35:01.359Z,-3.35
2023-01-19T04:37:28.935Z,-3.35
2023-01-19T04:39:56.457Z,-3.30
2023-01-19T04:42:23.936Z,-3.27
2023-01-19T04:44:52.567Z,-3.28
2023-01-19T04:47:20.098Z,-3.30
2023-01-19T04:49:48.945Z,-3.36
2023-01-19T04:52:16.431Z,-3.43
2023-01-19T04:54:43.926Z,-3.48
2023-01-19T04:57:11.434Z,-3.54
2023-01-19T04:59:38.995Z,-3.56
2023-01-19T05:02:06.539Z,-3.58
2023-01-19T05:04:34.076Z,-3.58
2023-01-19T05:07:02.941Z,-3.62
2023-01-19T05:09:30.625Z,-3.68
2023-01-19T05:11:58.155Z,-3.72
2023-01-19T05:14:25.669Z,-3.70
2023-01-19T05:16:53.238Z,-3.67
2023-01-19T05:19:21.123Z,-3.61
2023-01-19T05:21:48.761Z,-3.57
2023-01-19T05:24:18.342Z,-3.58
2023-01-19T05:26:45.789Z,-3.60
2023-01-19T05:29:13.681Z,-3.61
2023-01-19T05:31:41.259Z,-3.63
2023-01-19T05:34:11.798Z,-3.65
2023-01-19T05:36:39.866Z,-3.70
2023-01-19T05:39:07.577Z,-3.71
2023-01-19T05:41:36.849Z,-3.65
2023-01-19T05:44:04.559Z,-3.57
2023-01-19T05:46:32.263Z,-3.48
2023-01-19T05:49:01.636Z,-3.44
2023-01-19T05:51:34.846Z,-3.50
2023-01-19T05:54:02.466Z,-3.56
2023-01-19T05:56:30.366Z,-3.56
2023-01-19T05:59:01.659Z,-3.50
2023-01-19T06:01:29.375Z,-3.44
2023-01-19T06:03:58.301Z,-3.44
2023-01-19T06:06:26.053Z,-3.43
2023-01-19T06:08:53.546Z,-3.39
2023-01-19T06:11:21.911Z,-3.32
2023-01-19T06:13:49.716Z,-3.26
2023-01-19T06:16:28.250Z,-3.28
2023-01-19T06:18:56.049Z,-3.31
2023-01-19T06:21:24.062Z,-3.32
2023-01-19T06:23:51.578Z,-3.29
2023-01-19T06:26:19.077Z,-3.29
2023-01-19T06:28:46.565Z,-3.26
2023-01-19T06:31:14.094Z,-3.20
2023-01-19T06:33:43.015Z,-3.14
2023-01-19T06:36:10.724Z,-3.07
2023-01-19T06:38:38.214Z,-2.99
2023-01-19T06:41:05.984Z,-2.95
2023-01-19T06:43:33.442Z,-2.91
2023-01-19T06:46:01.707Z,-2.83
2023-01-19T06:48:30.392Z,-2.79
2023-01-19T06:50:59.934Z,-2.81
2023-01-19T06:53:30.125Z,-2.95
2023-01-19T06:55:59.868Z,-3.07
2023-01-19T06:58:27.888Z,-3.17
2023-01-19T07:00:56.182Z,-3.21
2023-01-19T07:03:24.345Z,-3.24
2023-01-19T07:05:52.654Z,-3.27
2023-01-19T07:08:21.658Z,-3.31
2023-01-19T07:11:26.262Z,-3.37
2023-01-19T07:13:38.471Z,-3.38
2023-01-19T07:16:08.162Z,-3.35
2023-01-19T07:18:35.856Z,-3.22
2023-01-19T07:21:03.433Z,-3.13
2023-01-19T07:23:32.599Z,-3.10
2023-01-19T07:26:01.679Z,-3.06
2023-01-19T07:28:29.748Z,-3.03
2023-01-19T07:30:57.693Z,-2.95
2023-01-19T07:33:25.810Z,-2.83
2023-01-19T07:35:54.369Z,-2.78
2023-01-19T07:38:22.523Z,-2.74
2023-01-19T07:40:51.344Z,-2.77
2023-01-19T07:43:19.388Z,-2.74
2023-01-19T07:45:46.953Z,-2.76
2023-01-19T07:48:14.425Z,-2.76
2023-01-19T07:50:41.872Z,-2.71
2023-01-19T07:53:11.709Z,-2.66
2023-01-19T07:55:39.226Z,-2.62
2023-01-19T07:58:08.108Z,-2.64
2023-01-19T08:00:36.585Z,-2.67
2023-01-19T08:03:05.253Z,-2.70
2023-01-19T08:05:34.078Z,-2.73
2023-01-19T08:08:01.821Z,-2.73
2023-01-19T08:10:29.901Z,-2.73
2023-01-19T08:12:59.345Z,-2.70
2023-01-19T08:15:28.666Z,-2.67
2023-01-19T08:17:57.693Z,-2.63
2023-01-19T08:20:25.768Z,-2.59
2023-01-19T08:22:59.808Z,-2.53
2023-01-19T08:25:33.045Z,-2.44
2023-01-19T08:28:01.048Z,-2.33
2023-01-19T08:30:30.380Z,-2.19
2023-01-19T08:33:04.127Z,-2.09
2023-01-19T08:35:32.050Z,-1.99
2023-01-19T08:38:01.540Z,-1.88
2023-01-19T08:40:29.624Z,-1.74
2023-01-19T08:43:00.964Z,-1.57
2023-01-19T08:45:30.913Z,-1.50
2023-01-19T08:47:59.031Z,-1.43
2023-01-19T08:50:27.051Z,-1.41
2023-01-19T08:52:56.857Z,-1.33
2023-01-19T08:55:24.353Z,-1.18
2023-01-19T08:57:53.545Z,-1.00
2023-01-19T09:00:22.481Z,-0.83
2023-01-19T09:02:51.522Z,-0.75
2023-01-19T09:05:19.319Z,-0.76
2023-01-19T09:07:47.984Z,-0.70
2023-01-19T09:10:16.198Z,-0.62
2023-01-19T09:12:44.864Z,-0.58
2023-01-19T09:15:13.945Z,-0.48
2023-01-19T09:17:42.110Z,-0.40
2023-01-19T09:20:11.967Z,-0.34
2023-01-19T09:22:39.529Z,-0.25
2023-01-19T09:25:08.235Z,-0.13
2023-01-19T09:27:36.673Z,0.01
2023-01-19T09:30:05.171Z,0.10
2023-01-19T09:32:32.672Z,0.17
2023-01-19T09:35:00.234Z,0.21
2023-01-19T09:37:29.068Z,0.24
2023-01-19T09:39:56.628Z,0.31
2023-01-19T09:42:28.514Z,0.44
2023-01-19T09:44:56.024Z,0.59
2023-01-19T09:47:28.392Z,0.80
2023-01-19T09:49:59.806Z,1.01
2023-01-19T09:52:29.718Z,1.18
2023-01-19T09:54:59.011Z,1.28
2023-01-19T09:57:28.339Z,1.45
2023-01-19T09:59:59.428Z,1.85
2023-01-19T10:02:36.687Z,2.31
2023-01-19T10:05:06.381Z,2.58
2023-01-19T10:07:48.756Z,2.68
2023-01-19T10:10:21.776Z,2.63
2023-01-19T10:13:04.911Z,2.60
2023-01-19T10:15:41.718Z,2.76
2023-01-19T10:18:17.605Z,2.84
2023-01-19T10:20:50.040Z,2.85
2023-01-19T10:23:40.572Z,2.80
2023-01-19T10:26:14.674Z,3.11
2023-01-19T10:28:42.600Z,4.31
2023-01-19T10:31:10.402Z,6.30
2023-01-19T10:33:39.462Z,8.62
2023-01-19T10:36:16.414Z,10.43
2023-01-19T10:38:45.969Z,11.85
2023-01-19T10:41:18.824Z,12.12
2023-01-19T10:43:47.173Z,11.13
2023-01-19T10:46:22.653Z,9.60
2023-01-19T10:48:51.979Z,8.35
2023-01-19T10:51:19.910Z,7.45
2023-01-19T10:53:58.303Z,6.74
2023-01-19T10:56:29.090Z,6.28
2023-01-19T10:58:56.618Z,5.98
2023-01-19T11:01:26.537Z,5.90
2023-01-19T11:03:57.058Z,5.85
2023-01-19T11:06:27.687Z,5.57
2023-01-19T11:09:11.730Z,5.25
2023-01-19T11:11:44.628Z,5.06
2023-01-19T11:14:14.977Z,5.00
2023-01-19T11:16:48.198Z,4.84
2023-01-19T11:19:23.106Z,4.67
2023-01-19T11:21:50.625Z,4.83
2023-01-19T11:24:20.060Z,5.63
2023-01-19T11:26:51.219Z,6.76
2023-01-19T11:29:23.224Z,7.17
2023-01-19T11:31:52.373Z,6.83
2023-01-19T11:34:26.698Z,6.26
2023-01-19T11:36:59.279Z,5.84
2023-01-19T11:39:30.291Z,5.49
2023-01-19T11:42:01.632Z,5.19
2023-01-19T11:44:33.472Z,4.97
2023-01-19T11:47:05.828Z,4.84
2023-01-19T11:49:41.536Z,4.77
2023-01-19T11:52:19.220Z,4.71
2023-01-19T11:54:53.195Z,4.59
2023-01-19T11:57:20.754Z,4.48
2023-01-19T11:59:49.730Z,4.39
2023-01-19T12:02:24.962Z,4.25
2023-01-19T12:04:57.231Z,4.05
2023-01-19T12:07:30.020Z,3.81
2023-01-19T12:10:04.457Z,3.64
2023-01-19T12:12:35.248Z,3.54
2023-01-19T12:15:07.736Z,3.62
2023-01-19T12:17:38.605Z,3.72
2023-01-19T12:20:14.895Z,3.75
2023-01-19T12:22:50.738Z,3.77
2023-01-19T12:25:23.733Z,3.80
2023-01-19T12:27:52.763Z,3.80
2023-01-19T12:30:24.008Z,3.81
2023-01-19T12:32:52.097Z,3.83
2023-01-19T12:35:57.841Z,3.81
2023-01-19T12:38:36.461Z,3.73
2023-01-19T12:41:19.901Z,3.72
2023-01-19T12:43:48.096Z,3.69
2023-01-19T12:46:21.058Z,3.60
2023-01-19T12:48:48.632Z,3.50
2023-01-19T12:51:24.202Z,3.44
2023-01-19T12:53:54.123Z,3.37
2023-01-19T12:56:29.692Z,3.28
2023-01-19T12:58:57.513Z,3.23
2023-01-19T13:01:26.934Z,3.20
2023-01-19T13:04:09.106Z,3.19
2023-01-19T13:07:17.830Z,3.19
2023-01-19T13:09:45.371Z,3.12
2023-01-19T13:12:22.847Z,3.14
2023-01-19T13:14:51.252Z,3.17
2023-01-19T13:17:29.337Z,3.15
2023-01-19T13:20:05.927Z,3.17
2023-01-19T13:22:52.118Z,3.12
2023-01-19T13:25:30.324Z,3.11
2023-01-19T13:27:59.605Z,3.08
2023-01-19T13:30:29.012Z,3.05
2023-01-19T13:33:02.354Z,3.05
2023-01-19T13:35:29.815Z,3.04
2023-01-19T13:37:59.162Z,3.04
2023-01-19T13:40:37.052Z,3.04
2023-01-19T13:43:15.657Z,2.99
2023-01-19T13:45:50.693Z,2.93
2023-01-19T13:48:22.372Z,2.92
2023-01-19T13:51:02.176Z,2.91
2023-01-19T13:53:30.358Z,2.89
2023-01-19T13:56:18.060Z,2.85
2023-01-19T13:58:58.605Z,2.80
2023-01-19T14:01:29.096Z,2.73
2023-01-19T14:03:57.088Z,2.62
2023-01-19T14:06:36.801Z,2.57
2023-01-19T14:09:17.588Z,2.60
2023-01-19T14:11:46.566Z,2.63
2023-01-19T14:14:29.038Z,2.65
2023-01-19T14:16:56.595Z,2.63
2023-01-19T14:19:24.463Z,2.61
2023-01-19T14:22:03.140Z,2.57
2023-01-19T14:24:32.958Z,2.52
2023-01-19T14:27:19.157Z,2.46
2023-01-19T14:29:50.594Z,2.44
2023-01-19T14:32:20.492Z,2.40
2023-01-19T14:34:50.173Z,2.35
2023-01-19T14:37:23.729Z,2.31
2023-01-19T14:39:52.497Z,2.30
2023-01-19T14:42:25.878Z,2.24
2023-01-19T14:44:57.299Z,2.19
2023-01-19T14:47:31.894Z,2.11
2023-01-19T14:50:07.377Z,1.98
2023-01-19T14:52:39.083Z,1.92
2023-01-19T14:55:17.113Z,1.85
2023-01-19T14:57:44.603Z,1.80
2023-01-19T15:00:17.677Z,1.75
2023-01-19T15:02:45.441Z,1.74
2023-01-19T15:05:13.826Z,1.72
2023-01-19T15:07:44.430Z,1.68
2023-01-19T15:10:18.270Z,1.68
2023-01-19T15:12:46.196Z,1.69
2023-01-19T15:15:22.588Z,1.70
2023-01-19T15:17:50.795Z,1.70
2023-01-19T15:20:21.001Z,1.69
2023-01-19T15:22:48.869Z,1.68
2023-01-19T15:25:18.006Z,1.65
2023-01-19T15:27:46.763Z,1.68
2023-01-19T15:30:18.698Z,1.67
2023-01-19T15:32:46.400Z,1.66
2023-01-19T15:35:15.340Z,1.61
2023-01-19T15:37:42.880Z,1.60
2023-01-19T15:40:11.779Z,1.61
2023-01-19T15:42:40.147Z,1.62
2023-01-19T15:45:36.129Z,1.61
2023-01-19T15:48:05.944Z,1.60
2023-01-19T15:50:34.653Z,1.58
2023-01-19T15:53:02.479Z,1.60
2023-01-19T15:55:30.269Z,1.59
2023-01-19T15:58:01.678Z,1.58
2023-01-19T16:00:32.484Z,1.53
2023-01-19T16:03:01.425Z,1.49
2023-01-19T16:05:41.949Z,1.48
2023-01-19T16:08:10.417Z,1.47
2023-01-19T16:10:37.997Z,1.47
2023-01-19T16:13:05.603Z,1.48
2023-01-19T16:15:35.730Z,1.49
2023-01-19T16:18:03.357Z,1.44
2023-01-19T16:20:30.957Z,1.43
2023-01-19T16:23:09.607Z,1.44
2023-01-19T16:25:41.461Z,1.49
2023-01-19T16:28:09.245Z,1.45
2023-01-19T16:30:38.129Z,1.43
2023-01-19T16:33:05.803Z,1.41
2023-01-19T16:35:33.257Z,1.34
2023-01-19T16:38:00.704Z,1.33
2023-01-19T16:40:28.458Z,1.32
2023-01-19T16:42:55.973Z,1.28
2023-01-19T16:45:23.489Z,1.22
2023-01-19T16:47:52.345Z,1.15
2023-01-19T16:50:20.376Z,1.11
2023-01-19T16:52:47.880Z,1.11
2023-01-19T16:55:15.370Z,1.15
2023-01-19T16:57:42.889Z,1.16
2023-01-19T17:00:11.732Z,1.18
2023-01-19T17:02:39.368Z,1.19
2023-01-19T17:05:09.521Z,1.20
2023-01-19T17:07:37.091Z,1.18
2023-01-19T17:10:05.482Z,1.13
2023-01-19T17:12:32.988Z,1.09
2023-01-19T17:15:00.491Z,1.05
2023-01-19T17:17:28.029Z,1.04
2023-01-19T17:19:55.489Z,1.03
2023-01-19T17:22:24.302Z,1.01
2023-01-19T17:24:51.799Z,0.97
2023-01-19T17:27:19.280Z,0.91
2023-01-19T17:29:49.175Z,0.86
2023-01-19T17:32:17.329Z,0.86
2023-01-19T17:34:46.583Z,0.84
2023-01-19T17:37:14.088Z,0.80
2023-01-19T17:39:42.966Z,0.79
2023-01-19T17:42:10.685Z,0.76
2023-01-19T17:44:38.193Z,0.72
2023-01-19T17:47:05.738Z,0.70
2023-01-19T17:49:33.384Z,0.67
2023-01-19T17:52:00.848Z,0.64
2023-01-19T17:54:28.539Z,0.56
2023-01-19T17:56:57.365Z,0.45
2023-01-19T17:59:24.901Z,0.36
2023-01-19T18:01:52.395Z,0.26
2023-01-19T18:04:19.864Z,0.24
2023-01-19T18:06:49.039Z,0.39
2023-01-19T18:09:16.866Z,0.45
2023-01-19T18:11:45.291Z,0.40
2023-01-19T18:14:14.379Z,0.35
2023-01-19T18:16:41.865Z,0.29
2023-01-19T18:19:09.443Z,0.25
2023-01-19T18:21:38.039Z,0.17
2023-01-19T18:26:42.522Z,0.09
2023-01-19T18:29:10.512Z,0.06
2023-01-19T18:31:44.297Z,0.01
2023-01-19T18:34:12.121Z,-0.04
2023-01-19T18:36:39.890Z,-0.08
2023-01-19T18:39:09.528Z,-0.12
2023-01-19T18:41:41.627Z,-0.14
2023-01-19T18:44:09.871Z,-0.17
2023-01-19T18:46:40.394Z,-0.16
2023-01-19T18:49:09.783Z,-0.16
2023-01-19T18:51:39.570Z,-0.15
2023-01-19T18:54:08.166Z,-0.15
2023-01-19T18:56:36.168Z,-0.14
2023-01-19T18:59:05.271Z,-0.14
2023-01-19T19:01:36.055Z,-0.13
2023-01-19T19:04:07.201Z,-0.11
2023-01-19T19:06:35.837Z,-0.08
2023-01-19T19:09:03.689Z,-0.03
2023-01-19T19:11:31.479Z,0.05
2023-01-19T19:14:01.448Z,0.09
2023-01-19T19:16:30.060Z,0.09
2023-01-19T19:19:01.499Z,0.08
2023-01-19T19:21:30.582Z,0.08
2023-01-19T19:23:59.697Z,0.11
2023-01-19T19:26:28.253Z,0.15
2023-01-19T19:28:56.157Z,0.19
2023-01-19T19:31:26.324Z,0.22
2023-01-19T19:33:58.982Z,0.25
2023-01-19T19:36:28.832Z,0.29
2023-01-19T19:38:59.692Z,0.34
2023-01-19T19:41:28.936Z,0.40
2023-01-19T19:43:59.567Z,0.40
2023-01-19T19:46:27.828Z,0.41
2023-01-19T19:48:55.859Z,0.43
2023-01-19T19:51:25.545Z,0.49
2023-01-19T19:53:54.483Z,0.57
2023-01-19T19:56:25.260Z,0.66
2023-01-19T19:58:56.006Z,0.71
2023-01-19T20:01:27.631Z,0.73
2023-01-19T20:03:56.686Z,0.71
2023-01-19T20:06:25.994Z,0.69
2023-01-19T20:08:55.901Z,0.69
2023-01-19T20:11:27.870Z,0.68
2023-01-19T20:13:55.898Z,0.67
2023-01-19T20:16:24.370Z,0.63
2023-01-19T20:18:55.409Z,0.59
2023-01-19T20:21:25.235Z,0.57
2023-01-19T20:23:53.959Z,0.53
2023-01-19T20:26:27.827Z,0.51
2023-01-19T20:29:03.390Z,0.53
2023-01-19T20:31:33.869Z,0.55
2023-01-19T20:34:05.393Z,0.55
2023-01-19T20:36:33.585Z,0.56
2023-01-19T20:39:08.542Z,0.55
2023-01-19T20:41:43.327Z,0.56
2023-01-19T20:44:13.147Z,0.58
2023-01-19T20:46:41.233Z,0.61
2023-01-19T20:49:08.902Z,0.65
2023-01-19T20:51:37.501Z,0.66
2023-01-19T20:54:05.263Z,0.63
2023-01-19T20:56:33.098Z,0.64
2023-01-19T20:59:02.750Z,0.63
2023-01-19T21:01:30.671Z,0.62
2023-01-19T21:03:58.370Z,0.61
2023-01-19T21:06:26.064Z,0.63
2023-01-19T21:08:53.739Z,0.65
2023-01-19T21:11:23.964Z,0.65
2023-01-19T21:13:55.594Z,0.63
2023-01-19T21:16:26.206Z,0.63
2023-01-19T21:18:54.465Z,0.66
2023-01-19T21:21:30.494Z,0.72
2023-01-19T21:23:59.475Z,0.75
2023-01-19T21:26:29.629Z,0.75
2023-01-19T21:29:17.418Z,0.68
2023-01-19T21:31:49.148Z,0.64
2023-01-19T21:34:20.673Z,0.59
2023-01-19T21:36:51.163Z,0.54
2023-01-19T21:39:18.872Z,0.52
2023-01-19T21:41:49.340Z,0.54
2023-01-19T21:44:20.328Z,0.59
2023-01-19T21:46:49.339Z,0.63
2023-01-19T21:49:19.135Z,0.63
2023-01-19T21:51:48.110Z,0.68
2023-01-19T21:54:22.133Z,0.70
2023-01-19T21:56:49.753Z,0.71
2023-01-19T21:59:19.685Z,0.75
2023-01-19T22:01:49.560Z,0.77
2023-01-19T22:04:17.981Z,0.80
2023-01-19T22:06:45.600Z,0.81
2023-01-19T22:09:13.208Z,0.80
2023-01-19T22:11:40.780Z,0.79
2023-01-19T22:14:08.360Z,0.78
2023-01-19T22:16:36.391Z,0.77
2023-01-19T22:19:18.477Z,0.79
2023-01-19T22:21:46.965Z,0.80
2023-01-19T22:24:14.611Z,0.82
2023-01-19T22:26:42.327Z,0.86
2023-01-19T22:29:11.233Z,0.89
2023-01-19T22:31:45.809Z,0.89
2023-01-19T22:34:20.980Z,0.77
2023-01-19T22:36:49.592Z,0.75
2023-01-19T22:39:22.007Z,0.78
2023-01-19T22:41:49.671Z,0.78
2023-01-19T22:44:20.773Z,0.78
2023-01-19T22:46:51.258Z,0.80
2023-01-19T22:49:20.356Z,0.81
2023-01-19T22:51:48.140Z,0.82
2023-01-19T22:54:16.307Z,0.84
2023-01-19T22:56:43.879Z,0.88
2023-01-19T22:59:11.500Z,0.88
2023-01-19T23:01:40.461Z,0.82
2023-01-19T23:04:09.956Z,0.80
2023-01-19T23:06:39.049Z,0.79
2023-01-19T23:09:09.211Z,0.77
2023-01-19T23:11:39.463Z,0.77
2023-01-19T23:14:09.663Z,0.77
2023-01-19T23:16:37.404Z,0.82
2023-01-19T23:19:05.736Z,0.84
2023-01-19T23:21:33.715Z,0.74
2023-01-19T23:24:04.534Z,0.66
2023-01-19T23:26:37.937Z,0.65
2023-01-19T23:29:07.482Z,0.69
2023-01-19T23:31:37.672Z,0.73
2023-01-19T23:34:07.566Z,0.72
2023-01-19T23:36:36.685Z,0.66
2023-01-19T23:39:09.803Z,0.64
2023-01-19T23:41:37.439Z,0.62
2023-01-19T23:44:05.517Z,0.57
2023-01-19T23:46:33.474Z,0.51
2023-01-19T23:49:01.136Z,0.45
2023-01-19T23:51:30.635Z,0.44
2023-01-19T23:53:59.638Z,0.49
2023-01-19T23:56:30.139Z,0.54
2023-01-19T23:58:59.579Z,0.62
